ADDS METAR Data INFO
IDs: Format: Raw Decoded Include TAF

Data at: 2252 UTC 22 Jun 2018

KI23 222235Z AUTO 16004KT 10SM CLR 24/18 A2969 RMK AO1
KI23 222215Z AUTO 20005KT 10SM CLR 24/18 A2969 RMK AO1
KI23 222155Z AUTO 23005KT 10SM CLR 25/19 A2969 RMK AO1
KI23 222135Z AUTO 24006KT 10SM CLR 24/20 A2970 RMK AO1
KI23 222115Z AUTO 24007KT 10SM CLR 23/20 A2971 RMK AO1
KI23 222055Z AUTO 24010KT 10SM CLR 24/20 A2973 RMK AO1
KI23 222035Z AUTO 24011G17KT 10SM CLR 25/19 A2972 RMK AO1
KI23 222015Z AUTO 24010KT 10SM CLR 27/19 A2972 RMK AO1
KI23 221955Z AUTO 24012G16KT 10SM CLR 27/19 A2971 RMK AO1
KI23 221935Z AUTO 23011G17KT 210V270 10SM CLR 28/19 A2971 RMK AO1
KI23 221915Z AUTO 22013G17KT 10SM CLR 27/18 A2971 RMK AO1
KI23 221855Z AUTO 21013G18KT 10SM CLR 27/19 A2971 RMK AO1
KI23 221835Z AUTO 24012KT 10SM SCT041 27/19 A2971 RMK AO1
KI23 221815Z AUTO 22014G17KT 10SM SCT041 27/19 A2971 RMK AO1
KI23 221755Z AUTO 23013G19KT 10SM CLR 27/19 A2971 RMK AO1
KI23 221735Z AUTO 22011KT 10SM SCT036 27/19 A2972 RMK AO1
KI23 221715Z AUTO 21012G16KT 10SM SCT036 26/20 A2973 RMK AO1
KI23 221655Z AUTO 22013G16KT 10SM SCT030 SCT037 26/20 A2974 RMK AO1
KI23 221635Z AUTO 20011G15KT 10SM SCT028 SCT035 SCT042 26/21 A2974 RMK AO1
KI23 221615Z AUTO 20008KT 10SM SCT029 SCT037 SCT120 26/21 A2974 RMK AO1
KI23 221555Z AUTO 23009KT 10SM SCT025 SCT031 BKN039 25/21 A2974 RMK AO1
KI23 221535Z AUTO 22013KT 10SM SCT023 SCT030 SCT036 25/21 A2974 RMK AO1
KI23 221515Z AUTO 20006KT 10SM SCT020 SCT029 SCT055 24/21 A2975 RMK AO1
KI23 221455Z AUTO 22006KT 10SM SCT012 SCT018 SCT026 24/22 A2975 RMK AO1
KI23 221435Z AUTO 22008KT 10SM BKN010 OVC016 24/22 A2975 RMK AO1
KI23 221415Z AUTO 19008KT 10SM SCT009 BKN014 OVC018 23/22 A2975 RMK AO1
KI23 221355Z AUTO 17006KT 10SM BKN009 OVC014 22/22 A2975 RMK AO1
KI23 221335Z AUTO 16007KT 10SM OVC007 22/22 A2976 RMK AO1
KI23 221315Z AUTO 17004KT 10SM BKN007 OVC010 22/22 A2975 RMK AO1
KI23 221255Z AUTO 18007KT 7SM OVC005 22/22 A2975 RMK AO1
KI23 221235Z AUTO 17006KT 7SM OVC005 21/21 A2975 RMK AO1
KI23 221215Z AUTO 17005KT 10SM OVC005 21/21 A2975 RMK AO1
KI23 221155Z AUTO 14006KT 5SM OVC003 21/21 A2974 RMK AO1
KI23 221135Z AUTO 13006KT 3SM OVC003 21/21 A2974 RMK AO1
KI23 221115Z AUTO 12006KT 1 3/4SM OVC003 21/21 A2974 RMK AO1
KI23 221055Z AUTO 09004KT 1SM OVC003 21/21 A2974 RMK AO1
KI23 221035Z AUTO 00000KT 1SM OVC003 21/21 A2975 RMK AO1
KI23 221015Z AUTO 00000KT 1SM OVC003 21/21 A2974 RMK AO1
KI23 220955Z AUTO 00000KT 2 1/2SM OVC003 21/21 A2974 RMK AO1
KI23 220935Z AUTO 00000KT 3SM OVC001 21/21 A2973 RMK AO1
KI23 220915Z AUTO 14003KT 1 3/4SM OVC001 21/21 A2973 RMK AO1
KI23 220855Z AUTO 15005KT 1/2SM OVC001 20/20 A2973 RMK AO1
KI23 220835Z AUTO 13004KT 1 1/4SM OVC001 20/20 A2973 RMK AO1
KI23 220815Z AUTO 13003KT 3SM OVC003 20/20 A2972 RMK AO1
KI23 220755Z AUTO 00000KT 5SM OVC003 20/20 A2972 RMK AO1
KI23 220735Z AUTO 12003KT 7SM OVC003 21/21 A2972 RMK AO1
KI23 220715Z AUTO 11005KT 5SM OVC003 21/21 A2973 RMK AO1
KI23 220655Z AUTO 11004KT 7SM OVC005 21/21 A2973 RMK AO1
KI23 220635Z AUTO 11005KT 5SM OVC003 21/21 A2973 RMK AO1
KI23 220615Z AUTO 10003KT 7SM OVC005 21/21 A2974 RMK AO1
KI23 220555Z AUTO 12003KT 7SM OVC005 21/21 A2975 RMK AO1
KI23 220535Z AUTO 11004KT 7SM OVC005 21/21 A2975 RMK AO1
KI23 220515Z AUTO 11003KT 10SM OVC005 21/21 A2976 RMK AO1
KI23 220455Z AUTO 00000KT 7SM BKN005 OVC013 21/21 A2976 RMK AO1 P0002
KI23 220435Z AUTO 10004KT 4SM BKN005 BKN012 BKN021 21/21 A2976 RMK AO1 P0001
KI23 220415Z AUTO 11003KT 5SM SCT003 SCT007 BKN022 21/21 A2976 RMK AO1
KI23 220355Z AUTO 12003KT 10SM SCT003 BKN024 OVC030 21/21 A2976 RMK AO1
KI23 220335Z AUTO 12004KT 10SM SCT012 BKN024 BKN030 21/21 A2977 RMK AO1
KI23 220315Z AUTO 10004KT 10SM SCT006 SCT011 OVC024 21/21 A2977 RMK AO1
KI23 220255Z AUTO 11006KT 10SM SCT004 BKN020 OVC026 21/21 A2977 RMK AO1 P0001
KI23 220236Z AUTO 12006KT 10SM OVC004 21/21 A2977 RMK AO1 P0001
KI23 220215Z AUTO 10005KT 5SM OVC004 21/21 A2976 RMK AO1 P0001
KI23 220155Z AUTO 10005KT 4SM BKN004 OVC011 21/21 A2976 RMK AO1 P0007
KI23 220135Z AUTO 09007KT 3SM OVC004 21/21 A2976 RMK AO1 P0006
KI23 220115Z AUTO 12003KT 3SM OVC004 21/21 A2976 RMK AO1 P0003
KI23 220055Z AUTO 11005KT 7SM BKN004 BKN021 OVC028 21/21 A2976 RMK AO1 P0001
KI23 220035Z AUTO 11004KT 7SM OVC004 21/21 A2976 RMK AO1 P0001
KI23 220015Z AUTO 08009KT 7SM OVC004 21/21 A2976 RMK AO1 P0001
KI23 212355Z AUTO 08007KT 5SM OVC004 21/21 A2975 RMK AO1 P0012
KI23 212335Z AUTO 07009KT 4SM OVC004 21/21 A2975 RMK AO1 P0009
KI23 212315Z AUTO 06005KT 3SM OVC004 21/21 A2975 RMK AO1 P0005
KI23 212255Z AUTO 05005KT 3SM BKN004 OVC010 21/21 A2976 RMK AO1 P0022
KI23 212235Z AUTO 05007KT 3SM 21/21 A2975 RMK AO1 SKY OBSCURED P0015
KI23 212215Z AUTO 04007KT 2 1/2SM BKN004 BKN008 OVC025 21/21 A2976 RMK AO1 P0008
KI23 212155Z AUTO 04007KT 3SM SCT004 BKN016 OVC025 21/21 A2976 RMK AO1 P0018
KI23 212135Z AUTO 06004KT 2 1/2SM 22/22 A2976 RMK AO1 SKY OBSCURED P0009
KI23 212115Z AUTO 04006KT 4SM SCT004 SCT012 SCT021 21/21 A2976 RMK AO1 P0005
KI23 212055Z AUTO 05004KT 4SM SCT004 SCT012 SCT021 22/22 A2976 RMK AO1 P0003
KI23 212035Z AUTO 05006KT 5SM SCT006 SCT010 SCT016 22/22 A2976 RMK AO1 P0001
KI23 212015Z AUTO 03004KT 7SM SCT007 BKN012 BKN020 22/22 A2977 RMK AO1
KI23 211955Z AUTO 04005KT 4SM BKN012 BKN020 22/22 A2977 RMK AO1 P0005
KI23 211935Z AUTO 06006KT 2 1/2SM BKN009 OVC012 22/22 A2977 RMK AO1 P0004
KI23 211915Z AUTO 04007KT 3SM OVC007 22/22 A2978 RMK AO1
KI23 211855Z AUTO 06006KT 2 1/2SM BKN009 OVC012 22/22 A2978 RMK AO1 P0003
KI23 211835Z AUTO 05007KT 2 1/2SM SCT005 OVC009 22/22 A2978 RMK AO1 P0002
KI23 211815Z AUTO 06005KT 2SM OVC005 22/22 A2979 RMK AO1 P0002
KI23 211755Z AUTO 06006KT 1 1/2SM BKN003 OVC010 22/22 A2979 RMK AO1 P0009
KI23 211735Z AUTO 07006KT 2SM OVC005 22/22 A2980 RMK AO1 P0002
KI23 211715Z AUTO 09005KT 1 3/4SM OVC005 22/22 A2981 RMK AO1
KI23 211655Z AUTO 10004KT 1 3/4SM OVC005 22/22 A2982 RMK AO1 P0001
KI23 211635Z AUTO 08004KT 1 3/4SM OVC005 22/22 A2982 RMK AO1
KI23 211615Z AUTO 10005KT 1 1/4SM OVC005 21/21 A2982 RMK AO1
KI23 211555Z AUTO 09006KT 1 3/4SM OVC005 21/21 A2983 RMK AO1
KI23 211535Z AUTO 08006KT 2 1/2SM OVC005 21/21 A2983 RMK AO1
KI23 211515Z AUTO 10005KT 2 1/2SM OVC005 22/21 A2983 RMK AO1
KI23 211455Z AUTO 10005KT 2 1/2SM OVC005 22/21 A2983 RMK AO1
KI23 211435Z AUTO 09006KT 2 1/2SM OVC005 21/21 A2983 RMK AO1
KI23 211355Z AUTO 11004KT 4SM OVC005 21/21 A2984 RMK AO1 P0001
KI23 211335Z AUTO 08006KT 4SM OVC005 20/20 A2984 RMK AO1 P0001
KI23 211315Z AUTO 07009KT 4SM BKN005 OVC012 20/20 A2984 RMK AO1 P0001
KI23 211255Z AUTO 07007KT 5SM SCT005 OVC014 20/20 A2984 RMK AO1
KI23 211235Z AUTO 06005KT 5SM SCT005 OVC014 20/20 A2985 RMK AO1
KI23 211215Z AUTO 06005KT 5SM SCT005 BKN010 OVC014 20/20 A2985 RMK AO1
KI23 211155Z AUTO 06006KT 5SM OVC008 20/20 A2985 RMK AO1
KI23 211135Z AUTO 06006KT 5SM SCT005 OVC010 20/20 A2985 RMK AO1
KI23 211115Z AUTO 05006KT 5SM SCT004 OVC010 20/20 A2985 RMK AO1
KI23 211055Z AUTO 05004KT 4SM SCT004 OVC010 20/20 A2985 RMK AO1